Time;durP1;ratioP1;P1;durP2;ratioP2;P2;SDS_P1;SDS_P2;PMS_P1;PMS_P2;Temp;Humidity;BMP_temperature;BMP_pressure;BME280_temperature;BME280_humidity;BME280_pressure;Samples;Min_cycle;Max_cycle;Signal;HPM_P1;HPM_P2
2023/07/01 00:02:14;;;;;;;3.90;2.42;;;22.70;84.20;;;;;;5072486;28;20033;-73
2023/07/01 00:04:43;;;;;;;6.53;2.70;;;22.70;84.30;;;;;;5073117;28;20024;-73
2023/07/01 00:07:09;;;;;;;4.35;2.65;;;22.70;85.20;;;;;;5072846;28;20501;-72
2023/07/01 00:09:35;;;;;;;4.22;2.55;;;22.70;85.40;;;;;;5073019;28;20103;-74
2023/07/01 00:12:00;;;;;;;5.85;2.30;;;22.60;84.50;;;;;;5072904;28;20480;-73
2023/07/01 00:14:26;;;;;;;5.43;3.30;;;22.60;84.70;;;;;;5072941;28;20033;-73
2023/07/01 00:16:52;;;;;;;5.70;2.70;;;22.60;85.10;;;;;;5072916;28;20043;-73
2023/07/01 00:19:18;;;;;;;2.95;2.47;;;22.60;85.00;;;;;;5072790;28;20025;-74
2023/07/01 00:21:43;;;;;;;8.00;2.70;;;22.60;85.20;;;;;;5073006;28;20033;-73
2023/07/01 00:24:09;;;;;;;3.45;2.22;;;22.60;85.20;;;;;;5072977;28;20202;-73
2023/07/01 00:26:36;;;;;;;5.13;2.55;;;22.50;85.20;;;;;;5055142;28;20048;-73
2023/07/01 00:29:02;;;;;;;3.95;2.58;;;22.50;85.40;;;;;;5072985;28;20031;-74
2023/07/01 00:31:27;;;;;;;5.15;2.60;;;22.50;85.70;;;;;;5072966;28;20392;-73
2023/07/01 00:33:53;;;;;;;4.93;2.70;;;22.50;85.90;;;;;;5072743;28;20017;-74
2023/07/01 00:36:19;;;;;;;5.00;2.38;;;22.40;86.00;;;;;;5072724;28;20099;-73
2023/07/01 00:38:45;;;;;;;7.85;2.33;;;22.50;86.20;;;;;;5072867;28;20027;-74
2023/07/01 00:41:10;;;;;;;3.30;2.30;;;22.50;86.20;;;;;;5078541;28;20012;-71
2023/07/01 00:43:36;;;;;;;5.38;2.45;;;22.40;86.40;;;;;;5096039;28;20033;-71
2023/07/01 00:46:02;;;;;;;4.63;2.50;;;22.40;86.70;;;;;;5084738;28;20027;-73
2023/07/01 00:48:28;;;;;;;5.30;2.30;;;22.40;86.60;;;;;;5096612;28;20031;-73
2023/07/01 00:50:55;;;;;;;3.42;1.80;;;22.30;86.10;;;;;;5082835;28;20457;-73
2023/07/01 00:53:22;;;;;;;6.28;2.28;;;22.30;86.40;;;;;;5072567;28;20028;-73
2023/07/01 00:55:47;;;;;;;3.17;2.17;;;22.30;86.50;;;;;;5072488;28;20021;-72
2023/07/01 00:58:14;;;;;;;5.30;2.28;;;22.30;86.20;;;;;;5071203;28;20040;-72
2023/07/01 01:00:40;;;;;;;4.25;2.33;;;22.20;86.20;;;;;;5069925;28;20025;-72
2023/07/01 01:03:29;;;;;;;2.80;1.95;;;22.20;86.30;;;;;;5069855;28;20464;-71
2023/07/01 01:06:10;;;;;;;3.58;2.17;;;22.20;86.00;;;;;;5072128;28;20354;-73
2023/07/01 01:08:51;;;;;;;3.23;1.93;;;22.20;85.90;;;;;;5072309;28;20032;-73
2023/07/01 01:11:18;;;;;;;5.10;2.08;;;22.20;85.70;;;;;;5072812;28;20255;-73
2023/07/01 01:13:45;;;;;;;2.83;2.03;;;22.20;85.50;;;;;;5075737;28;20388;-72
2023/07/01 01:16:12;;;;;;;2.72;1.67;;;22.20;85.20;;;;;;5076064;28;20086;-72
2023/07/01 01:18:42;;;;;;;4.03;1.90;;;22.20;84.90;;;;;;5076106;28;20028;-74
2023/07/01 01:21:11;;;;;;;3.28;2.17;;;22.20;84.70;;;;;;5075849;28;20024;-74
2023/07/01 01:23:42;;;;;;;4.00;2.05;;;22.20;84.50;;;;;;5076025;28;20515;-73
2023/07/01 01:26:18;;;;;;;4.18;2.05;;;22.30;84.30;;;;;;5075999;28;20023;-73
2023/07/01 01:28:44;;;;;;;4.45;2.10;;;22.30;83.80;;;;;;5075855;28;20024;-73
2023/07/01 01:31:11;;;;;;;6.22;2.03;;;22.30;83.40;;;;;;5057812;28;20102;-73
2023/07/01 01:33:38;;;;;;;3.65;2.15;;;22.40;83.20;;;;;;5075460;28;20021;-71
2023/07/01 01:36:38;;;;;;;4.60;1.70;;;22.30;83.00;;;;;;5075318;28;20526;-73
2023/07/01 01:39:05;;;;;;;3.05;2.08;;;22.30;82.50;;;;;;5074679;28;20135;-72
2023/07/01 01:41:49;;;;;;;4.47;1.95;;;22.20;82.20;;;;;;5075393;28;20468;-74
2023/07/01 01:44:25;;;;;;;4.07;1.88;;;22.20;82.80;;;;;;5075636;28;20111;-73
2023/07/01 01:46:51;;;;;;;7.20;2.10;;;22.10;82.40;;;;;;5075834;28;20377;-74
2023/07/01 01:49:19;;;;;;;4.80;2.30;;;22.20;82.50;;;;;;5075250;28;20476;-73
2023/07/01 01:51:45;;;;;;;2.42;1.80;;;22.20;82.50;;;;;;5075581;28;20389;-74
2023/07/01 01:54:12;;;;;;;4.90;2.00;;;22.20;82.50;;;;;;5075558;28;20495;-74
2023/07/01 01:56:38;;;;;;;3.45;1.80;;;22.20;82.70;;;;;;5057473;28;20417;-74
2023/07/01 01:59:04;;;;;;;3.70;2.00;;;22.20;82.70;;;;;;5075520;28;20024;-74
2023/07/01 02:01:30;;;;;;;4.47;2.20;;;22.20;82.50;;;;;;5075326;28;20020;-74
2023/07/01 02:03:56;;;;;;;6.05;2.08;;;22.20;82.30;;;;;;5075574;28;20044;-73
2023/07/01 02:06:22;;;;;;;3.70;1.98;;;22.20;82.50;;;;;;5075253;28;20024;-73
2023/07/01 02:08:47;;;;;;;2.90;1.95;;;22.20;82.30;;;;;;5075240;28;20476;-73
2023/07/01 02:11:13;;;;;;;3.25;1.73;;;22.20;82.50;;;;;;5075368;28;20028;-73
2023/07/01 02:13:39;;;;;;;6.38;2.05;;;22.20;82.40;;;;;;5075020;28;20025;-74
2023/07/01 02:16:05;;;;;;;8.57;3.35;;;22.30;82.40;;;;;;5075063;28;20548;-74
2023/07/01 02:18:31;;;;;;;4.82;1.88;;;22.30;82.30;;;;;;5074983;28;20051;-72
2023/07/01 02:20:56;;;;;;;6.28;2.55;;;22.30;82.10;;;;;;5075214;28;20042;-74
2023/07/01 02:23:22;;;;;;;2.55;1.77;;;22.20;82.10;;;;;;5074204;28;20087;-74
2023/07/01 02:25:48;;;;;;;4.00;2.05;;;22.20;82.00;;;;;;5074944;28;20376;-74
2023/07/01 02:28:13;;;;;;;4.07;1.90;;;22.20;82.10;;;;;;5074667;28;20052;-74
2023/07/01 02:30:40;;;;;;;3.15;2.42;;;22.20;82.20;;;;;;5075170;28;20055;-74
2023/07/01 02:33:05;;;;;;;3.92;2.17;;;22.30;82.20;;;;;;5074652;28;20461;-74
2023/07/01 02:35:31;;;;;;;6.45;2.25;;;22.20;82.30;;;;;;5074658;28;20031;-74
2023/07/01 02:37:57;;;;;;;2.95;1.83;;;22.30;82.20;;;;;;5074592;28;20044;-74
2023/07/01 02:40:23;;;;;;;3.08;1.95;;;22.30;81.80;;;;;;5074710;28;20032;-74
2023/07/01 02:42:49;;;;;;;3.70;2.13;;;22.20;81.70;;;;;;5074412;28;20383;-72
2023/07/01 02:45:14;;;;;;;3.35;2.10;;;22.20;81.80;;;;;;5074509;28;20103;-74
2023/07/01 02:47:40;;;;;;;3.22;2.10;;;22.20;81.90;;;;;;5074134;28;20059;-72
2023/07/01 02:50:06;;;;;;;3.13;1.95;;;22.20;82.10;;;;;;5074296;28;20070;-73
2023/07/01 02:52:32;;;;;;;2.38;2.00;;;22.20;82.30;;;;;;5074296;28;20427;-74
2023/07/01 02:54:58;;;;;;;3.63;2.60;;;22.10;82.30;;;;;;5074445;28;20087;-74
2023/07/01 02:57:24;;;;;;;5.63;2.40;;;22.10;82.50;;;;;;5074317;28;20031;-73
2023/07/01 02:59:50;;;;;;;3.45;2.15;;;22.10;83.20;;;;;;5074440;28;20380;-73
2023/07/01 03:02:16;;;;;;;3.67;2.63;;;22.00;82.60;;;;;;5073701;28;20033;-74
2023/07/01 03:04:42;;;;;;;2.65;2.10;;;22.10;82.60;;;;;;5073914;28;20027;-73
2023/07/01 03:07:07;;;;;;;5.22;2.33;;;22.10;82.70;;;;;;5073957;28;20070;-74
2023/07/01 03:09:33;;;;;;;3.50;2.10;;;22.00;82.70;;;;;;5073878;28;20082;-74
2023/07/01 03:11:59;;;;;;;4.07;2.38;;;22.00;82.80;;;;;;5074034;28;20067;-73
2023/07/01 03:14:25;;;;;;;4.90;2.33;;;22.00;83.50;;;;;;5073856;28;20056;-74
2023/07/01 03:16:52;;;;;;;3.25;2.15;;;22.00;83.60;;;;;;5073569;28;20054;-74
2023/07/01 03:19:18;;;;;;;2.75;1.98;;;21.90;83.70;;;;;;5073714;28;20096;-74
2023/07/01 03:21:45;;;;;;;9.88;3.20;;;22.00;83.90;;;;;;5073599;28;20108;-73
2023/07/01 03:24:11;;;;;;;5.72;2.30;;;22.00;83.70;;;;;;5073764;28;20070;-73
2023/07/01 03:26:37;;;;;;;4.30;2.25;;;22.00;83.50;;;;;;5073717;28;20021;-73
2023/07/01 03:29:03;;;;;;;3.83;2.15;;;22.00;83.60;;;;;;5073410;28;20103;-74
2023/07/01 03:31:28;;;;;;;5.10;2.30;;;22.00;83.60;;;;;;5073090;28;20108;-74
2023/07/01 03:33:54;;;;;;;3.00;2.00;;;22.00;83.60;;;;;;5073617;28;20017;-73
2023/07/01 03:36:20;;;;;;;2.60;2.17;;;22.00;83.60;;;;;;5072747;28;20473;-74
2023/07/01 03:38:46;;;;;;;3.42;2.10;;;22.00;83.30;;;;;;5073432;28;20051;-73
2023/07/01 03:41:11;;;;;;;3.65;2.50;;;22.10;82.90;;;;;;5073200;28;20468;-73
2023/07/01 03:43:37;;;;;;;2.90;2.00;;;22.10;82.70;;;;;;5072853;28;20033;-73
2023/07/01 03:46:03;;;;;;;3.63;2.30;;;22.00;82.50;;;;;;5073072;28;20032;-73
2023/07/01 03:48:29;;;;;;;4.07;2.15;;;22.00;82.50;;;;;;5073452;28;20016;-74
2023/07/01 03:50:55;;;;;;;3.63;2.30;;;22.00;82.60;;;;;;5073335;28;20013;-74
2023/07/01 03:53:20;;;;;;;4.07;2.50;;;22.00;82.80;;;;;;5073166;28;20040;-74
2023/07/01 03:55:47;;;;;;;4.07;2.50;;;22.00;82.90;;;;;;5072852;28;20040;-73
2023/07/01 03:58:21;;;;;;;7.10;2.15;;;22.00;82.90;;;;;;5073000;28;20103;-73
2023/07/01 04:00:53;;;;;;;2.75;2.20;;;22.00;82.80;;;;;;5072982;28;20040;-73
2023/07/01 04:03:23;;;;;;;4.93;2.80;;;22.00;82.80;;;;;;5072862;28;20036;-74
2023/07/01 04:05:52;;;;;;;5.25;2.10;;;21.90;82.70;;;;;;5072970;28;20074;-73
2023/07/01 04:08:17;;;;;;;4.05;2.25;;;21.90;82.80;;;;;;5073078;28;20562;-72
2023/07/01 04:10:43;;;;;;;2.85;2.30;;;21.90;83.00;;;;;;5072890;28;20028;-73
2023/07/01 04:13:10;;;;;;;4.35;2.47;;;21.90;83.10;;;;;;5072742;28;20029;-73
2023/07/01 04:15:36;;;;;;;3.85;2.55;;;21.90;83.20;;;;;;5072984;28;20443;-71
2023/07/01 04:18:02;;;;;;;4.85;2.38;;;21.90;83.40;;;;;;5073113;28;20028;-73
2023/07/01 04:20:28;;;;;;;5.15;2.63;;;21.90;83.60;;;;;;5072918;28;20093;-73
2023/07/01 04:22:53;;;;;;;6.35;2.63;;;21.90;83.50;;;;;;5072808;28;20044;-73
2023/07/01 04:25:19;;;;;;;5.22;2.20;;;21.90;83.50;;;;;;5072667;28;20422;-72
2023/07/01 04:27:45;;;;;;;4.25;2.42;;;21.90;83.60;;;;;;5072562;28;20054;-73
2023/07/01 04:30:12;;;;;;;4.00;2.50;;;21.90;83.40;;;;;;5072564;28;20020;-73
2023/07/01 04:32:37;;;;;;;5.47;2.35;;;21.90;83.10;;;;;;5072556;28;20024;-72
2023/07/01 04:35:04;;;;;;;4.50;2.67;;;21.80;83.00;;;;;;5072544;28;20024;-73
2023/07/01 04:37:30;;;;;;;4.32;2.40;;;21.80;83.20;;;;;;5054560;28;20082;-73
2023/07/01 04:39:55;;;;;;;9.07;2.60;;;21.80;83.50;;;;;;5072650;28;20016;-73
2023/07/01 04:42:21;;;;;;;7.50;3.25;;;21.80;83.70;;;;;;5072186;28;20052;-73
2023/07/01 04:44:56;;;;;;;4.97;2.63;;;21.80;84.10;;;;;;5072653;28;20096;-73
2023/07/01 04:47:22;;;;;;;4.20;2.60;;;21.80;84.30;;;;;;5074747;28;20028;-72
2023/07/01 04:49:52;;;;;;;5.18;2.72;;;21.80;84.40;;;;;;5076741;28;20028;-73
2023/07/01 04:52:21;;;;;;;4.15;2.42;;;21.80;84.20;;;;;;5076718;28;20028;-72
2023/07/01 04:54:47;;;;;;;6.07;2.63;;;21.80;84.20;;;;;;5076508;28;20082;-73
2023/07/01 04:57:13;;;;;;;4.90;2.42;;;21.80;84.10;;;;;;5076421;28;20067;-73
2023/07/01 04:59:39;;;;;;;3.33;2.35;;;21.90;84.20;;;;;;5076661;28;20024;-72
2023/07/01 05:02:05;;;;;;;3.85;2.50;;;21.90;84.30;;;;;;5076410;28;20035;-73
2023/07/01 05:04:30;;;;;;;4.22;2.40;;;21.90;84.30;;;;;;5076240;28;20021;-73
2023/07/01 05:06:56;;;;;;;6.07;3.28;;;21.90;84.20;;;;;;5076068;28;20039;-73
2023/07/01 05:09:22;;;;;;;5.25;2.55;;;22.00;84.30;;;;;;5075811;28;20381;-73
2023/07/01 05:11:47;;;;;;;3.97;2.50;;;22.00;84.20;;;;;;5075868;28;20036;-73
2023/07/01 05:14:13;;;;;;;4.95;2.65;;;22.00;84.20;;;;;;5076052;28;20031;-72
2023/07/01 05:16:39;;;;;;;8.50;3.00;;;22.10;84.50;;;;;;5076080;28;20128;-73
2023/07/01 05:19:05;;;;;;;5.63;2.72;;;22.10;84.30;;;;;;5075942;28;20100;-74
2023/07/01 05:21:32;;;;;;;6.22;2.70;;;22.20;84.30;;;;;;5076007;28;20091;-73
2023/07/01 05:23:57;;;;;;;5.97;2.70;;;22.10;84.20;;;;;;5075762;28;20029;-73
2023/07/01 05:26:23;;;;;;;6.32;2.60;;;22.10;84.30;;;;;;5075876;28;20050;-73
2023/07/01 05:28:49;;;;;;;5.28;2.55;;;22.10;84.50;;;;;;5075806;28;20024;-73
2023/07/01 05:31:15;;;;;;;5.75;2.45;;;22.20;84.70;;;;;;5075765;28;20031;-72
2023/07/01 05:33:44;;;;;;;6.05;2.47;;;22.10;84.70;;;;;;5075719;28;20031;-73
2023/07/01 05:36:10;;;;;;;5.32;3.10;;;22.10;84.80;;;;;;5057956;28;20365;-72
2023/07/01 05:38:38;;;;;;;4.57;2.63;;;22.20;84.70;;;;;;5075683;28;20459;-71
2023/07/01 05:41:03;;;;;;;4.20;3.00;;;22.20;84.50;;;;;;5075540;28;20107;-75
2023/07/01 05:43:29;;;;;;;4.00;2.70;;;22.20;84.20;;;;;;5075533;28;20103;-76
2023/07/01 05:45:55;;;;;;;6.13;3.00;;;22.20;84.40;;;;;;5076130;28;20028;-76
2023/07/01 05:48:21;;;;;;;6.88;3.05;;;22.20;84.60;;;;;;5078194;28;20035;-76
2023/07/01 05:50:47;;;;;;;4.07;2.83;;;22.20;84.70;;;;;;5075384;28;20461;-75
2023/07/01 05:53:12;;;;;;;4.90;2.85;;;22.20;84.40;;;;;;5075257;28;20029;-75
2023/07/01 05:55:38;;;;;;;5.82;3.03;;;22.20;84.20;;;;;;5075238;28;20020;-75
2023/07/01 05:58:04;;;;;;;4.85;3.13;;;22.10;84.40;;;;;;5074140;28;20028;-75
2023/07/01 06:00:30;;;;;;;4.75;3.00;;;22.10;84.50;;;;;;5074846;28;20028;-75
2023/07/01 06:02:56;;;;;;;7.22;3.00;;;22.10;84.60;;;;;;5074602;28;20504;-77
2023/07/01 06:05:22;;;;;;;8.52;3.00;;;22.10;84.90;;;;;;5074950;28;20021;-77
2023/07/01 06:07:49;;;;;;;5.60;2.72;;;22.00;84.80;;;;;;5075021;28;20036;-74
2023/07/01 06:10:15;;;;;;;3.75;2.85;;;22.00;84.70;;;;;;5074868;28;20025;-73
2023/07/01 06:12:41;;;;;;;4.68;2.80;;;22.10;85.00;;;;;;5075198;28;20035;-73
2023/07/01 06:15:07;;;;;;;8.35;3.60;;;22.10;84.90;;;;;;5074526;28;20412;-73
2023/07/01 06:17:32;;;;;;;8.32;4.53;;;22.10;85.20;;;;;;5075257;28;20469;-73
2023/07/01 06:19:58;;;;;;;5.60;3.22;;;22.10;86.30;;;;;;5075185;28;20035;-73
2023/07/01 06:22:24;;;;;;;5.55;3.95;;;22.20;87.50;;;;;;5074435;28;20072;-73
2023/07/01 06:24:50;;;;;;;10.60;4.20;;;22.20;88.20;;;;;;5074896;28;20435;-72
2023/07/01 06:27:15;;;;;;;9.40;5.38;;;22.20;88.70;;;;;;5074769;28;20095;-72
2023/07/01 06:29:41;;;;;;;6.95;4.63;;;22.20;88.90;;;;;;5074512;28;20021;-73
2023/07/01 06:32:07;;;;;;;13.05;6.55;;;22.20;87.90;;;;;;5074493;28;20028;-73
2023/07/01 06:34:33;;;;;;;8.77;5.70;;;22.20;87.70;;;;;;5074754;28;20365;-72
2023/07/01 06:36:58;;;;;;;9.68;5.00;;;22.20;88.00;;;;;;5074338;28;20033;-73
2023/07/01 06:39:24;;;;;;;9.13;4.60;;;22.20;88.50;;;;;;5074697;28;20012;-73
2023/07/01 06:41:50;;;;;;;9.90;4.50;;;22.20;89.30;;;;;;5074098;28;20071;-72
2023/07/01 06:44:16;;;;;;;7.45;5.03;;;22.20;90.00;;;;;;5074536;28;20048;-72
2023/07/01 06:46:41;;;;;;;10.05;4.60;;;22.20;90.20;;;;;;5073913;28;20058;-72
2023/07/01 06:49:07;;;;;;;9.55;4.80;;;22.20;90.30;;;;;;5073972;28;20033;-71
2023/07/01 06:51:33;;;;;;;7.97;4.63;;;22.20;90.40;;;;;;5073658;28;20028;-72
2023/07/01 06:53:58;;;;;;;7.00;4.65;;;22.20;90.40;;;;;;5074090;28;20033;-72
2023/07/01 06:56:24;;;;;;;7.40;4.70;;;22.20;90.40;;;;;;5074136;28;20044;-73
2023/07/01 06:58:50;;;;;;;7.07;4.97;;;22.20;90.50;;;;;;5074140;28;20021;-73
2023/07/01 07:01:15;;;;;;;6.78;4.30;;;22.20;90.50;;;;;;5074070;28;20060;-73
2023/07/01 07:03:41;;;;;;;7.05;4.72;;;22.20;90.50;;;;;;5073545;28;20106;-73
2023/07/01 07:06:07;;;;;;;7.68;3.97;;;22.20;90.60;;;;;;5073184;28;20016;-73
2023/07/01 07:08:33;;;;;;;6.15;4.10;;;22.30;90.70;;;;;;5073916;28;20476;-73
2023/07/01 07:10:59;;;;;;;5.80;4.10;;;22.30;90.70;;;;;;5073561;28;20024;-73
2023/07/01 07:13:25;;;;;;;6.55;4.25;;;22.30;90.80;;;;;;5073711;28;20484;-72
2023/07/01 07:15:51;;;;;;;7.22;4.25;;;22.30;90.90;;;;;;5073643;28;20048;-71
2023/07/01 07:18:18;;;;;;;7.50;4.35;;;22.20;91.10;;;;;;5073685;28;20068;-72
2023/07/01 07:20:44;;;;;;;6.75;4.07;;;22.30;91.20;;;;;;5073567;28;20496;-73
2023/07/01 07:23:10;;;;;;;6.30;3.70;;;22.30;91.20;;;;;;5073480;28;20039;-72
2023/07/01 07:25:36;;;;;;;8.07;3.65;;;22.30;91.10;;;;;;5073031;28;20016;-72
2023/07/01 07:28:03;;;;;;;8.57;4.10;;;22.30;91.10;;;;;;5072352;28;20025;-72
2023/07/01 07:30:29;;;;;;;5.80;3.58;;;22.30;91.10;;;;;;5072170;28;20032;-73
2023/07/01 07:32:55;;;;;;;8.27;4.50;;;22.20;91.00;;;;;;5073335;28;20489;-72
2023/07/01 07:35:21;;;;;;;10.18;3.30;;;22.30;90.90;;;;;;5073527;28;20031;-72
2023/07/01 07:37:47;;;;;;;8.50;3.92;;;22.30;90.90;;;;;;5073111;28;20460;-72
2023/07/01 07:40:12;;;;;;;6.32;4.13;;;22.30;91.00;;;;;;5072288;28;20032;-72
2023/07/01 07:42:41;;;;;;;6.50;3.90;;;22.30;91.00;;;;;;5073357;28;20082;-73
2023/07/01 07:45:07;;;;;;;8.40;4.00;;;22.30;91.00;;;;;;5073620;28;20032;-72
2023/07/01 07:47:33;;;;;;;5.68;4.45;;;22.30;91.00;;;;;;5073332;28;20020;-73
2023/07/01 07:50:00;;;;;;;4.38;3.80;;;22.30;91.00;;;;;;5073192;28;20361;-71
2023/07/01 07:52:25;;;;;;;5.03;4.30;;;22.30;91.10;;;;;;5073270;28;20039;-73
2023/07/01 07:54:51;;;;;;;7.70;4.40;;;22.30;91.30;;;;;;5055439;28;20017;-73
2023/07/01 07:57:17;;;;;;;8.25;4.47;;;22.40;91.40;;;;;;5073135;28;20064;-73
2023/07/01 07:59:43;;;;;;;6.95;4.45;;;22.30;91.40;;;;;;5055455;28;20025;-73
2023/07/01 08:02:09;;;;;;;5.85;4.28;;;22.40;91.50;;;;;;5073131;28;20020;-72
2023/07/01 08:04:36;;;;;;;5.95;4.20;;;22.40;91.50;;;;;;5073128;28;20373;-71
2023/07/01 08:07:02;;;;;;;8.05;5.32;;;22.40;91.60;;;;;;5072882;28;20078;-72
2023/07/01 08:09:32;;;;;;;6.57;4.25;;;22.40;91.80;;;;;;5072910;28;20435;-73
2023/07/01 08:12:00;;;;;;;6.82;4.50;;;22.40;91.90;;;;;;5073163;28;20031;-73
2023/07/01 08:14:26;;;;;;;8.60;4.90;;;22.40;92.10;;;;;;5072863;28;20608;-72
2023/07/01 08:16:54;;;;;;;11.45;5.18;;;22.40;92.30;;;;;;5072716;28;20070;-72
2023/07/01 08:19:19;;;;;;;9.50;5.38;;;22.40;92.50;;;;;;5072965;28;20021;-73
2023/07/01 08:21:45;;;;;;;8.27;5.07;;;22.40;92.50;;;;;;5072222;28;20488;-72
2023/07/01 08:24:11;;;;;;;8.10;4.93;;;22.40;92.60;;;;;;5073372;28;20048;-73
2023/07/01 08:26:37;;;;;;;10.10;5.55;;;22.40;92.70;;;;;;5072978;28;20020;-72
2023/07/01 08:29:06;;;;;;;8.27;5.53;;;22.40;92.70;;;;;;5072844;28;20028;-73
2023/07/01 08:31:32;;;;;;;10.05;5.82;;;22.40;92.90;;;;;;5072901;28;20067;-73
2023/07/01 08:33:58;;;;;;;10.02;5.55;;;22.40;93.10;;;;;;5073077;28;20021;-73
2023/07/01 08:36:24;;;;;;;10.52;5.35;;;22.40;93.20;;;;;;5072843;28;20059;-73
2023/07/01 08:38:50;;;;;;;6.85;4.97;;;22.40;93.30;;;;;;5072980;28;20051;-73
2023/07/01 08:41:18;;;;;;;6.57;5.38;;;22.40;93.40;;;;;;5072581;28;20029;-73
2023/07/01 08:43:47;;;;;;;7.20;5.68;;;22.40;93.40;;;;;;5072676;28;20071;-73
2023/07/01 08:46:15;;;;;;;8.88;5.72;;;22.40;93.60;;;;;;5072848;28;20096;-73
2023/07/01 08:48:44;;;;;;;11.15;5.75;;;22.40;93.70;;;;;;5072744;28;20036;-72
2023/07/01 08:51:18;;;;;;;8.23;5.75;;;22.40;93.70;;;;;;5072629;28;20017;-73
2023/07/01 08:53:45;;;;;;;6.20;5.57;;;22.50;93.80;;;;;;5072847;28;20024;-72
2023/07/01 08:56:13;;;;;;;9.73;6.15;;;22.50;93.90;;;;;;5072874;28;20496;-73
2023/07/01 08:58:41;;;;;;;11.80;6.32;;;22.50;94.00;;;;;;5072759;28;20365;-73
2023/07/01 09:01:07;;;;;;;9.57;6.03;;;22.60;94.10;;;;;;5072374;28;20017;-73
2023/07/01 09:03:36;;;;;;;8.73;5.93;;;22.60;94.20;;;;;;5072429;28;20029;-72
2023/07/01 09:06:05;;;;;;;10.10;5.93;;;22.60;94.30;;;;;;5072719;28;20021;-72
2023/07/01 09:08:32;;;;;;;10.27;6.80;;;22.70;94.40;;;;;;5072619;28;20024;-73
2023/07/01 09:10:58;;;;;;;9.82;6.05;;;22.80;94.50;;;;;;5072332;28;20025;-73
2023/07/01 09:13:25;;;;;;;7.90;5.65;;;22.80;94.40;;;;;;5072678;28;20032;-73
2023/07/01 09:15:51;;;;;;;10.90;6.75;;;22.90;94.70;;;;;;5080433;22;20415;-73
2023/07/01 09:18:23;;;;;;;11.63;6.65;;;23.00;94.80;;;;;;5072473;28;20024;-73
2023/07/01 09:20:49;;;;;;;;;;;23.00;94.70;;;;;;5072974;28;20025;-73
2023/07/01 09:23:32;;;;;;;8.73;6.35;;;23.10;94.60;;;;;;5072211;28;20003;-73
2023/07/01 09:26:07;;;;;;;10.80;6.93;;;23.10;94.60;;;;;;5072328;28;20130;-73
2023/07/01 09:28:36;;;;;;;10.05;6.43;;;23.10;94.70;;;;;;5072361;28;20468;-73
2023/07/01 09:31:06;;;;;;;14.07;6.05;;;23.20;94.70;;;;;;5072222;28;20545;-72
2023/07/01 09:33:36;;;;;;;10.82;6.68;;;23.30;94.60;;;;;;5074716;28;20028;-73
2023/07/01 09:36:04;;;;;;;9.02;6.35;;;23.40;94.40;;;;;;5058056;28;20431;-73
2023/07/01 09:38:34;;;;;;;11.82;7.13;;;23.50;94.00;;;;;;5075727;28;20028;-72
2023/07/01 09:41:13;;;;;;;8.35;6.53;;;23.60;93.80;;;;;;5075864;28;20058;-73
2023/07/01 09:43:40;;;;;;;9.63;6.30;;;23.70;93.30;;;;;;5057909;28;20036;-71
2023/07/01 09:46:06;;;;;;;10.88;6.75;;;23.80;92.90;;;;;;5075944;28;20025;-74
2023/07/01 09:48:33;;;;;;;7.45;6.35;;;24.00;92.50;;;;;;5075283;28;20387;-74
2023/07/01 09:51:05;;;;;;;10.60;6.35;;;24.00;92.00;;;;;;5075508;28;20017;-74
2023/07/01 09:53:34;;;;;;;11.00;6.53;;;24.00;91.90;;;;;;5075632;28;20025;-73
2023/07/01 09:56:04;;;;;;;12.10;7.32;;;24.10;91.50;;;;;;5075715;28;20044;-72
2023/07/01 09:58:33;;;;;;;12.20;7.43;;;24.10;91.40;;;;;;5075354;28;20021;-74
2023/07/01 10:01:02;;;;;;;11.00;7.28;;;24.00;91.30;;;;;;5075268;28;20017;-73
2023/07/01 10:03:29;;;;;;;11.40;6.68;;;24.00;91.20;;;;;;5075150;28;20040;-72
2023/07/01 10:05:55;;;;;;;10.10;7.28;;;24.00;91.10;;;;;;5074938;28;20430;-72
2023/07/01 10:08:22;;;;;;;9.90;6.75;;;23.90;91.20;;;;;;5075002;28;20028;-72
2023/07/01 10:11:18;;;;;;;12.00;7.20;;;24.00;91.30;;;;;;5075303;28;20028;-72
2023/07/01 10:13:48;;;;;;;10.07;6.88;;;23.90;91.10;;;;;;5075076;28;20107;-73
2023/07/01 10:16:15;;;;;;;9.73;6.63;;;24.00;90.80;;;;;;5057069;28;20049;-73
2023/07/01 10:18:40;;;;;;;10.90;7.28;;;24.00;90.90;;;;;;5075333;28;20103;-74
2023/07/01 10:21:27;;;;;;;13.35;6.95;;;24.00;90.80;;;;;;5075256;28;20103;-74
2023/07/01 10:23:55;;;;;;;9.70;6.60;;;24.00;91.30;;;;;;5074548;28;20479;-74
2023/07/01 10:26:53;;;;;;;11.38;6.95;;;24.10;91.40;;;;;;5074710;28;20407;-74
2023/07/01 10:29:28;;;;;;;12.20;6.88;;;24.10;91.20;;;;;;5030527;28;20116;-74
2023/07/01 10:32:11;;;;;;;10.80;6.70;;;24.20;91.30;;;;;;5074763;28;20077;-74
2023/07/01 10:34:55;;;;;;;9.57;6.35;;;24.20;91.30;;;;;;5074666;28;20046;-73
2023/07/01 10:37:22;;;;;;;11.05;6.78;;;24.30;91.10;;;;;;5074491;28;20473;-74
2023/07/01 10:39:48;;;;;;;10.35;6.40;;;24.30;91.10;;;;;;5074289;28;20025;-72
2023/07/01 10:42:34;;;;;;;11.15;6.25;;;24.30;91.10;;;;;;5073904;28;20025;-73
2023/07/01 10:45:12;;;;;;;12.13;7.63;;;24.30;90.50;;;;;;5073756;28;20029;-73
2023/07/01 10:47:50;;;;;;;8.95;6.65;;;24.30;90.60;;;;;;5074337;28;20116;-73
2023/07/01 10:50:19;;;;;;;9.00;6.25;;;24.40;90.70;;;;;;5074406;28;20480;-73
2023/07/01 10:52:57;;;;;;;9.27;6.25;;;24.50;90.80;;;;;;5074335;28;20131;-73
2023/07/01 10:55:46;;;;;;;10.68;7.05;;;24.50;90.60;;;;;;5074218;28;20062;-73
2023/07/01 10:58:18;;;;;;;10.23;7.15;;;24.50;90.00;;;;;;5074288;28;20511;-73
2023/07/01 11:00:44;;;;;;;9.88;7.18;;;24.50;90.10;;;;;;5074063;28;20017;-73
2023/07/01 11:03:35;;;;;;;8.90;6.88;;;24.50;90.10;;;;;;5073905;28;20028;-73
2023/07/01 11:06:11;;;;;;;12.93;6.90;;;24.50;89.80;;;;;;5073722;28;20419;-72
2023/07/01 11:08:51;;;;;;;9.23;6.88;;;24.50;89.20;;;;;;5073987;28;20048;-72
2023/07/01 11:11:21;;;;;;;10.77;6.63;;;24.60;90.00;;;;;;5073996;28;20125;-73
2023/07/01 11:14:03;;;;;;;13.63;7.32;;;24.60;89.70;;;;;;5073861;28;20021;-73
2023/07/01 11:16:29;;;;;;;8.57;6.85;;;24.70;89.00;;;;;;5073480;28;20067;-73
2023/07/01 11:18:58;;;;;;;12.40;6.80;;;24.70;88.40;;;;;;5055550;28;20071;-73
2023/07/01 11:21:26;;;;;;;9.70;7.07;;;24.70;88.20;;;;;;5073621;28;20472;-73
2023/07/01 11:24:05;;;;;;;10.35;6.60;;;24.70;88.20;;;;;;5073498;28;20041;-73
2023/07/01 11:26:36;;;;;;;8.70;6.55;;;24.70;88.40;;;;;;5073247;28;20029;-73
2023/07/01 11:29:08;;;;;;;10.60;6.90;;;24.70;88.10;;;;;;5073322;28;20036;-73
2023/07/01 11:31:36;;;;;;;11.23;7.00;;;24.70;87.30;;;;;;5073325;28;20052;-73
2023/07/01 11:34:03;;;;;;;11.20;7.45;;;24.70;86.70;;;;;;5073441;28;20025;-73
2023/07/01 11:36:44;;;;;;;13.48;6.85;;;24.70;87.20;;;;;;5073387;28;20016;-73
2023/07/01 11:39:17;;;;;;;9.52;6.85;;;24.70;87.00;;;;;;5055405;28;20119;-73
2023/07/01 11:41:46;;;;;;;10.32;6.72;;;24.70;86.70;;;;;;5073082;28;20023;-73
2023/07/01 11:44:14;;;;;;;8.95;6.40;;;24.70;86.50;;;;;;5072889;28;20078;-73
2023/07/01 11:46:42;;;;;;;11.43;6.85;;;24.70;86.10;;;;;;5073171;28;20043;-73
2023/07/01 11:49:21;;;;;;;10.02;6.60;;;24.60;86.00;;;;;;5072669;28;20021;-73
2023/07/01 11:51:57;;;;;;;10.38;6.75;;;24.60;86.30;;;;;;5072760;28;20039;-73
2023/07/01 11:54:39;;;;;;;9.98;6.70;;;24.60;86.40;;;;;;5054964;28;20017;-74
2023/07/01 11:57:09;;;;;;;9.55;5.93;;;24.50;86.90;;;;;;5072344;28;20511;-74
2023/07/01 11:59:39;;;;;;;7.57;5.20;;;24.50;86.70;;;;;;5073169;28;20056;-73
2023/07/01 12:02:05;;;;;;;8.73;5.57;;;24.50;86.40;;;;;;5072960;28;20480;-74
2023/07/01 12:04:33;;;;;;;8.85;5.68;;;24.50;87.10;;;;;;5072990;28;20158;-73
2023/07/01 12:07:09;;;;;;;7.63;5.22;;;24.50;86.50;;;;;;5072997;28;20035;-74
2023/07/01 12:09:35;;;;;;;8.57;5.10;;;24.50;86.00;;;;;;5073281;28;20391;-74
2023/07/01 12:12:01;;;;;;;6.70;5.30;;;24.60;85.20;;;;;;5072826;28;20017;-73
2023/07/01 12:14:29;;;;;;;6.18;5.15;;;24.60;84.70;;;;;;5070015;28;20480;-72
2023/07/01 12:16:55;;;;;;;7.45;5.20;;;24.50;84.80;;;;;;5069852;28;20044;-73
2023/07/01 12:19:22;;;;;;;8.93;5.10;;;24.50;84.80;;;;;;5072397;28;20112;-72
2023/07/01 12:21:50;;;;;;;6.88;5.43;;;24.40;83.90;;;;;;5070522;28;20503;-72
2023/07/01 12:24:20;;;;;;;7.25;5.57;;;24.40;83.20;;;;;;5070014;28;20051;-73
2023/07/01 12:26:51;;;;;;;6.90;5.20;;;24.30;83.20;;;;;;5070237;28;20070;-73
2023/07/01 12:29:17;;;;;;;6.13;5.07;;;24.30;83.40;;;;;;5072685;28;20048;-72
2023/07/01 12:31:44;;;;;;;8.13;5.80;;;24.20;83.90;;;;;;5072782;28;20052;-72
2023/07/01 12:34:10;;;;;;;9.02;5.93;;;24.20;84.30;;;;;;5072619;28;20035;-72
2023/07/01 12:36:36;;;;;;;9.20;5.55;;;24.20;84.80;;;;;;5072066;28;20095;-72
2023/07/01 12:39:03;;;;;;;9.43;5.78;;;24.10;85.50;;;;;;5071989;28;20575;-72
2023/07/01 12:41:30;;;;;;;9.23;5.47;;;24.10;85.80;;;;;;5072268;28;20024;-72
2023/07/01 12:43:57;;;;;;;7.82;5.55;;;24.00;86.20;;;;;;5072082;28;20033;-73
2023/07/01 12:46:23;;;;;;;7.57;6.00;;;24.00;86.50;;;;;;5054233;28;20021;-73
2023/07/01 12:48:49;;;;;;;8.60;5.55;;;23.90;86.70;;;;;;5054266;28;20029;-72
2023/07/01 12:51:15;;;;;;;9.80;6.20;;;23.90;87.80;;;;;;5071973;28;20023;-73